Impacts METAR Board
IDs:

KNEW - New Orleans/Lakefron, LA, US

Updated at: 0700 UTC 24 Jan 2019
Potential Impact None Slight Moderate High
Time 23/19Z 23/20Z 23/21Z 23/22Z 23/23Z 24/00Z 24/01Z 24/02Z 24/03Z 24/04Z 24/05Z 24/06Z 24/07Z
Temp56 55 54 55 54 54 49 47 45 43 42 40 39
Dewpt54 53 53 53 53 52 46 44 42 39 36 35 33
Altim29.90 29.88 29.89 29.88 29.88 29.88 29.94 29.94 30.00 30.02 30.03 30.02 30.03
VIS1 4 2 10 10 10 7 10 10 10 10 10 10
CIG23 33 37 50 50 23 4 10 8 10 16 15 17
CoverOVCOVCOVCOVCOVCOVCOVCOVCOVCOVCOVCOVCOVC
FltCatIFRMVFRIFRVFRVFRMVFRLIFRMVFRIFRMVFRMVFRMVFRMVFR
WX+RA BR-RA BRRA BR-------RA------------
WDir300320310320260280290310290300300310310
WSpd19 17 13 4 7 13 33 25 23 24 25 22 21
WGst-- -- -- -- -- -- 36 29 -- 29 32 30 29
Raw hourly METARs
KNEW 231905Z 30019KT 1SM +RA BR FEW007 BKN023 OVC030 13/12 A2990 RMK AO2 PK WND 31031/1854 P0009 T01330122
KNEW 231953Z 32017KT 4SM -RA BR OVC033 13/12 A2988 RMK AO2 PK WND 31031/1854 LTG DSNT SE SLP112 P0021 T01280117
KNEW 232100Z 31013KT 2SM RA BR FEW009 OVC037 12/12 A2989 RMK AO2 P0001 T01220117
KNEW 232153Z AUTO 32004KT 10SM BKN050 OVC060 13/12 A2988 RMK AO2 RAE19 SLP110 P0001 T01280117
KNEW 232253Z 26007KT 10SM OVC050 12/12 A2988 RMK AO2 SLP113 T01220117
KNEW 232353Z 28013KT 10SM FEW008 BKN023 OVC100 12/11 A2988 RMK AO2 RAB00E31 SLP111 P0001 60059 T01220111 10206 20122 50001
KNEW 240053Z 29033G36KT 7SM -RA OVC004 09/08 A2994 RMK AO2 PK WND 28037/0053 RAB45 CIG 003V007 PRESRR SLP131 P0000 T00940078
KNEW 240203Z 31025G29KT 10SM BKN010 OVC020 08/07 A2994 RMK AO2 PK WND 31030/0155 CIG 007V013 T00830067
KNEW 240305Z AUTO 29023KT 10SM BKN008 OVC013 07/06 A3000 RMK AO2 PK WND 29027/0305 CIG 007V010 PRESRR T00720056
KNEW 240353Z AUTO 30024G29KT 10SM BKN010 OVC014 06/04 A3002 RMK AO2 PK WND 29031/0313 CIG 007V013 SLP158 T00610039
KNEW 240453Z AUTO 30025G32KT 10SM OVC016 06/02 A3003 RMK AO2 PK WND 31033/0358 SLP162 T00560022
KNEW 240553Z AUTO 31022G30KT 10SM OVC015 04/02 A3002 RMK AO2 PK WND 30033/0456 SLP160 60000 T00440017 10122 20044 402110044 50015
KNEW 240653Z AUTO 31021G29KT 10SM OVC017 04/01 A3003 RMK AO2 PK WND 31031/0600 SLP162 T00390006



Page loaded:  07:26 UTC  |   11:26 PM Pacific  |   12:26 AM Mountain  |   01:26 AM Central  |   02:26 AM Eastern

 

ADVISORIES

FORECASTS

FORECASTS

OBSERVATIONS

USER TOOLS

ABOUT US